Meteorología y climatología de Navarra
Datos de la estación - Meteo Navarra

Estación de Doneztebe-Santesteban GN

Altitud 125 m.


Datos desde el 02/08/2020 hasta el 03/08/2020 en horario solar
Los datos son PROVISIONALES

Anterior Página 1 de 1 Siguiente Descargar: Formato para Excel 2000 o superior   Formato csv   Formato para OpenOffice Calc
Fecha Temperatura Humedad relativa Radiación global Insolación Precipitación Vel. viento 10 m Vel. viento 10 m Dir. viento 10 m
ºC % W/m² s l/m² m/s km/h º
02/08/2020 0:00 18.8 98 0.0 0 0.0 0.3 1.2 207
02/08/2020 0:10 18.7 98 0.0 0 0.0 0.1 0.5 195
02/08/2020 0:20 18.7 98 0.0 0 0.0 0.0 0.0 0
02/08/2020 0:30 18.7 98 0.0 0 0.0 0.5 1.9 214
02/08/2020 0:40 18.9 98 0.0 0 0.0 0.1 0.5 209
02/08/2020 0:50 18.8 98 0.0 0 0.0 0.2 0.9 205
02/08/2020 1:00 18.7 98 0.0 0 0.0 0.4 1.3 186
02/08/2020 1:10 18.6 98 0.0 0 0.0 0.2 0.8 187
02/08/2020 1:20 18.5 98 0.0 0 0.0 0.4 1.5 118
02/08/2020 1:30 18.6 97 0.0 0 0.0 0.3 0.9 52
02/08/2020 1:40 18.5 97 0.0 0 0.0 0.7 2.4 175
02/08/2020 1:50 18.5 97 0.0 0 0.0 1.1 4.0 73
02/08/2020 2:00 18.6 96 0.0 0 0.0 0.4 1.5 122
02/08/2020 2:10 18.6 97 0.0 0 0.0 0.3 1.2 237
02/08/2020 2:20 18.5 97 0.0 0 0.0 0.7 2.4 282
02/08/2020 2:30 18.5 97 0.0 0 0.0 0.3 1.1 93
02/08/2020 2:40 18.6 98 0.0 0 0.0 0.4 1.4 174
02/08/2020 2:50 18.4 97 0.0 0 0.0 0.2 0.5 192
02/08/2020 3:00 18.4 97 0.0 0 0.0 0.2 0.6 125
02/08/2020 3:10 18.3 97 0.0 0 0.0 0.2 0.6 170
02/08/2020 3:20 18.2 97 0.0 0 0.0 0.4 1.4 72
02/08/2020 3:30 18.1 96 0.0 0 0.0 1.0 3.7 63
02/08/2020 3:40 18.5 91 0.0 0 0.0 1.7 6.0 39
02/08/2020 3:50 18.6 93 0.0 0 0.0 0.8 3.0 119
02/08/2020 4:00 18.5 95 0.0 0 0.0 0.7 2.6 137
02/08/2020 4:10 18.4 96 0.0 0 0.0 0.7 2.4 122
02/08/2020 4:20 18.4 96 0.0 0 0.0 0.8 2.8 127
02/08/2020 4:30 18.4 96 0.0 0 0.0 0.2 0.7 317
02/08/2020 4:40 18.3 96 0.0 0 0.0 0.1 0.5 305
02/08/2020 4:50 18.3 96 0.0 0 0.0 0.1 0.5 304
02/08/2020 5:00 18.2 96 0.0 0 0.3 1.2 4.1 339
02/08/2020 5:10 18.0 96 0.0 0 0.1 1.1 3.9 297
02/08/2020 5:20 18.0 96 0.0 0 0.0 0.6 2.2 337
02/08/2020 5:30 18.0 97 0.9 0 0.0 0.8 2.8 305
02/08/2020 5:40 18.0 97 17.1 0 0.0 1.0 3.5 302
02/08/2020 5:50 18.0 96 25.6 0 0.0 0.8 2.7 326
02/08/2020 6:00 18.0 96 35.8 0 0.0 0.8 3.0 293
02/08/2020 6:10 18.0 96 37.9 0 0.0 1.1 3.8 310
02/08/2020 6:20 18.0 96 36.7 0 0.0 0.9 3.1 299
02/08/2020 6:30 18.1 97 51.5 0 0.0 0.9 3.3 278
02/08/2020 6:40 18.1 96 27.7 0 0.5 1.0 3.7 295
02/08/2020 6:50 18.0 96 59.2 0 0.1 0.8 3.0 236
02/08/2020 7:00 18.1 96 104.1 0 0.0 0.7 2.4 5
02/08/2020 7:10 18.3 95 98.4 0 0.0 0.6 2.0 94
02/08/2020 7:20 18.4 96 147.1 0 0.0 0.7 2.4 217
02/08/2020 7:30 18.7 94 155.2 0 0.0 0.9 3.1 222
02/08/2020 7:40 18.9 93 156.9 0 0.0 0.6 2.3 241
02/08/2020 7:50 19.0 93 149.3 0 0.0 0.4 1.5 203
02/08/2020 8:00 19.2 93 168.5 0 0.0 0.9 3.1 159
02/08/2020 8:10 19.3 91 198.4 0 0.0 0.6 2.1 208
02/08/2020 8:20 19.5 89 226.0 0 0.0 0.5 1.9 200
02/08/2020 8:30 19.9 89 253.4 0 0.0 0.4 1.4 221
02/08/2020 8:40 19.9 83 189.6 0 0.0 0.9 3.2 276
02/08/2020 8:50 20.0 84 234.4 0 0.0 0.4 1.5 183
02/08/2020 9:00 20.0 85 272.7 0 0.0 0.7 2.7 190
02/08/2020 9:10 20.3 80 328.9 0 0.0 1.0 3.5 229
02/08/2020 9:20 20.5 76 326.3 0 0.0 1.4 4.9 358
02/08/2020 9:30 20.8 74 513.9 350 0.0 1.0 3.7 27
02/08/2020 9:40 21.2 70 457.4 306 0.0 1.8 6.3 7
02/08/2020 9:50 21.3 71 290.0 0 0.0 1.3 4.7 342
02/08/2020 10:00 21.1 71 300.9 0 0.0 1.8 6.6 354
02/08/2020 10:10 21.1 70 252.9 0 0.0 1.8 6.4 346
02/08/2020 10:20 20.8 71 246.4 0 0.0 1.5 5.2 328
02/08/2020 10:30 21.0 73 287.8 0 0.0 0.9 3.1 285
02/08/2020 10:40 21.1 72 279.3 0 0.0 0.9 3.4 7
02/08/2020 10:50 21.1 75 259.5 0 0.0 1.3 4.8 102
02/08/2020 11:00 21.1 76 254.7 0 0.0 1.4 4.9 114
02/08/2020 11:10 21.4 74 285.7 0 0.0 0.9 3.3 103
02/08/2020 11:20 21.6 73 408.3 12 0.0 0.8 3.0 108
02/08/2020 11:30 22.0 73 340.7 0 0.0 1.4 5.0 121
02/08/2020 11:40 21.5 73 339.3 0 0.0 2.2 7.8 89
02/08/2020 11:50 21.4 74 429.8 24 0.0 2.4 8.5 100
02/08/2020 12:00 21.6 73 432.7 152 0.0 2.3 8.2 113
02/08/2020 12:10 21.5 73 271.7 0 0.0 1.9 6.7 126
02/08/2020 12:20 21.4 72 137.3 0 0.0 1.2 4.4 112
02/08/2020 12:30 21.1 73 148.5 0 0.0 1.3 4.8 74
02/08/2020 12:40 21.1 75 183.5 0 0.0 1.1 4.0 78
02/08/2020 12:50 21.0 73 218.0 0 0.0 1.6 5.6 77
02/08/2020 13:00 21.3 73 219.2 0 0.0 1.1 3.8 99
02/08/2020 13:10 21.7 71 194.9 0 0.0 0.4 1.5 103
02/08/2020 13:20 21.6 69 221.1 0 0.0 1.3 4.7 359
02/08/2020 13:30 21.5 71 140.5 0 0.0 1.3 4.6 12
02/08/2020 13:40 21.3 71 125.4 0 0.0 1.0 3.6 351
02/08/2020 13:50 21.2 70 108.6 0 0.0 1.3 4.7 41
02/08/2020 14:00 21.1 69 89.0 0 0.0 1.3 4.8 29
02/08/2020 14:10 20.9 71 94.6 0 0.0 1.0 3.5 39
02/08/2020 14:20 20.9 72 164.6 0 0.0 0.8 2.8 314
02/08/2020 14:30 21.1 70 297.6 0 0.0 1.3 4.7 344
02/08/2020 14:40 21.4 68 257.9 0 0.0 1.6 5.8 327
02/08/2020 14:50 21.4 68 296.1 0 0.0 0.8 2.9 333
02/08/2020 15:00 21.6 68 247.0 0 0.0 1.3 4.8 349
02/08/2020 15:10 21.3 70 156.6 0 0.0 1.8 6.4 354
02/08/2020 15:20 20.7 71 80.9 0 0.0 2.3 8.4 5
02/08/2020 15:30 20.3 73 127.0 0 0.0 1.5 5.4 6
02/08/2020 15:40 20.2 75 185.0 0 0.0 1.3 4.7 14
02/08/2020 15:50 20.2 76 84.9 0 0.0 1.3 4.6 341
02/08/2020 16:00 19.9 77 68.6 0 0.0 0.7 2.4 344
02/08/2020 16:10 19.8 79 95.4 0 0.0 1.6 5.6 334
02/08/2020 16:20 19.7 79 164.4 0 0.0 1.0 3.5 31
02/08/2020 16:30 20.1 75 211.1 0 0.0 1.4 5.1 344
02/08/2020 16:40 20.2 73 195.4 0 0.0 1.8 6.3 337
02/08/2020 16:50 20.4 73 230.8 104 0.0 1.4 5.0 10
02/08/2020 17:00 20.8 73 175.7 96 0.0 1.1 3.8 311
02/08/2020 17:10 20.7 73 137.7 16 0.0 0.7 2.6 331
02/08/2020 17:20 20.7 73 126.0 0 0.0 0.7 2.6 329
02/08/2020 17:30 20.5 75 101.3 0 0.0 0.5 1.8 244
02/08/2020 17:40 20.4 75 87.6 0 0.0 0.5 1.8 323
02/08/2020 17:50 20.5 75 128.9 82 0.0 0.5 1.7 33
02/08/2020 18:00 20.7 75 100.8 0 0.0 0.7 2.6 315
02/08/2020 18:10 20.4 74 85.1 6 0.0 0.8 3.0 21
02/08/2020 18:20 20.2 73 62.5 0 0.0 0.6 2.2 48
02/08/2020 18:30 20.1 73 63.2 0 0.0 0.6 2.0 97
02/08/2020 18:40 20.0 73 38.3 0 0.0 0.9 3.3 110
02/08/2020 18:50 19.9 73 26.9 0 0.0 1.2 4.1 70
02/08/2020 19:00 19.8 72 18.5 0 0.0 0.8 3.0 35
02/08/2020 19:10 19.5 75 0.0 0 0.0 0.7 2.5 55
02/08/2020 19:20 19.4 76 0.0 0 0.0 0.6 2.0 56
02/08/2020 19:30 19.2 79 0.0 0 0.0 0.5 1.9 177
02/08/2020 19:40 18.9 82 0.0 0 0.0 0.2 0.6 157
02/08/2020 19:50 18.8 81 0.0 0 0.0 0.9 3.3 41
02/08/2020 20:00 18.9 82 0.0 0 0.0 0.4 1.4 307
02/08/2020 20:10 18.7 83 0.0 0 0.0 0.1 0.4 234
02/08/2020 20:20 18.5 84 0.0 0 0.0 0.2 0.6 90
02/08/2020 20:30 18.4 85 0.0 0 0.0 0.3 1.2 138
02/08/2020 20:40 18.3 85 0.0 0 0.0 0.6 2.1 117
02/08/2020 20:50 17.9 86 0.0 0 0.0 1.0 3.7 135
02/08/2020 21:00 17.8 86 0.0 0 0.0 0.5 1.7 101
02/08/2020 21:10 17.8 87 0.0 0 0.0 0.5 1.9 132
02/08/2020 21:20 17.7 87 0.0 0 0.0 0.6 2.2 111
02/08/2020 21:30 17.8 86 0.0 0 0.0 0.5 1.9 109
02/08/2020 21:40 17.8 87 0.0 0 0.0 1.0 3.4 118
02/08/2020 21:50 17.6 88 0.0 0 0.0 0.8 2.7 126
02/08/2020 22:00 17.6 88 0.0 0 0.0 1.1 4.1 131
02/08/2020 22:10 17.5 89 0.0 0 0.0 0.5 1.7 126
02/08/2020 22:20 17.6 90 0.0 0 0.0 0.6 2.2 123
02/08/2020 22:30 17.5 90 0.0 0 0.0 0.8 2.8 134
02/08/2020 22:40 17.3 90 0.0 0 0.0 0.8 3.0 128
02/08/2020 22:50 17.3 91 0.0 0 0.0 0.7 2.4 135
02/08/2020 23:00 17.3 91 0.0 0 0.0 0.9 3.1 154
02/08/2020 23:10 17.2 91 0.0 0 0.0 0.7 2.4 127
02/08/2020 23:20 17.1 92 0.0 0 0.0 0.5 1.7 111
02/08/2020 23:30 17.2 92 0.0 0 0.0 0.9 3.1 131
02/08/2020 23:40 17.1 92 0.0 0 0.0 0.6 2.2 125
02/08/2020 23:50 17.1 92 0.0 0 0.0 0.9 3.2 140
Anterior Página 1 de 1 Siguiente

NOTA: Tipo de datos según el color:
   - Valores diarios o 10 minutos correctos
   - Valores diarios calculados a partir de un número de datos 10 minutos menor que 144 y mayor que 120, o de un número de datos semihorarios menor que 48 y mayor que 40 (caso de las estaciones de INTIA y del Ministerio)
   - Valores diez minutos estimados


Contacto        Enlaces        Aviso legal